ADDS TAF Data INFO
IDs: Format: Raw Decoded Include METARs

Data at: 1026 UTC 16 Aug 2018

KMAF 160953Z AUTO 13005KT 10SM CLR 24/19 A3005 RMK AO2 SLP121 T02390194

KMAF 160526Z 1606/1706 17011KT P6SM FEW250